createdAt,value
2023-04-24T00:01:30.552Z,52.86
2023-04-24T00:04:17.865Z,52.94
2023-04-24T00:07:03.904Z,52.84
2023-04-24T00:09:49.441Z,52.70
2023-04-24T00:12:34.756Z,52.78
2023-04-24T00:15:19.982Z,53.00
2023-04-24T00:18:05.575Z,52.71
2023-04-24T00:20:51.016Z,52.91
2023-04-24T00:23:36.348Z,52.88
2023-04-24T00:26:21.518Z,52.69
2023-04-24T00:29:06.783Z,52.78
2023-04-24T00:31:52.236Z,52.85
2023-04-24T00:34:37.464Z,52.68
2023-04-24T00:37:22.813Z,52.79
2023-04-24T00:40:08.969Z,52.81
2023-04-24T00:42:54.489Z,52.75
2023-04-24T00:45:39.881Z,52.56
2023-04-24T00:48:26.230Z,52.73
2023-04-24T00:51:11.593Z,52.70
2023-04-24T00:53:56.975Z,52.65
2023-04-24T00:56:43.605Z,52.64
2023-04-24T00:59:29.399Z,52.61
2023-04-24T01:02:15.884Z,52.78
2023-04-24T01:05:02.461Z,52.81
2023-04-24T01:07:50.029Z,52.72
2023-04-24T01:10:37.531Z,52.72
2023-04-24T01:13:22.966Z,52.66
2023-04-24T01:16:08.328Z,52.70
2023-04-24T01:18:53.528Z,52.63
2023-04-24T01:21:39.977Z,52.69
2023-04-24T01:24:25.343Z,52.63
2023-04-24T01:27:11.309Z,52.76
2023-04-24T01:29:56.588Z,52.62
2023-04-24T01:32:45.515Z,52.61
2023-04-24T01:35:31.173Z,52.63
2023-04-24T01:38:16.416Z,52.74
2023-04-24T01:41:01.989Z,52.61
2023-04-24T01:43:47.617Z,52.48
2023-04-24T01:46:35.689Z,52.68
2023-04-24T01:49:23.135Z,52.57
2023-04-24T01:52:08.714Z,52.78
2023-04-24T01:54:54.318Z,52.50
2023-04-24T01:57:39.694Z,52.70
2023-04-24T02:00:25.972Z,52.55
2023-04-24T02:03:12.552Z,52.42
2023-04-24T02:05:58.283Z,52.59
2023-04-24T02:08:43.553Z,52.49
2023-04-24T02:11:28.855Z,52.70
2023-04-24T02:14:14.057Z,52.70
2023-04-24T02:16:59.280Z,52.50
2023-04-24T02:19:44.751Z,52.51
2023-04-24T02:22:30.316Z,52.61
2023-04-24T02:25:15.547Z,52.68
2023-04-24T02:28:01.103Z,52.60
2023-04-24T02:30:46.291Z,52.60
2023-04-24T02:33:31.595Z,52.49
2023-04-24T02:36:16.907Z,52.60
2023-04-24T02:39:02.238Z,52.67
2023-04-24T02:41:47.569Z,52.51
2023-04-24T02:44:35.382Z,52.59
2023-04-24T02:47:20.751Z,52.62
2023-04-24T02:50:08.959Z,52.99
2023-04-24T02:52:54.254Z,53.01
2023-04-24T02:55:39.553Z,51.28
2023-04-24T02:58:25.953Z,51.60
2023-04-24T03:01:11.569Z,52.85
2023-04-24T03:03:57.421Z,53.21
2023-04-24T03:06:42.871Z,53.42
2023-04-24T03:09:28.000Z,53.40
2023-04-24T03:12:13.182Z,53.27
2023-04-24T03:14:58.503Z,53.33
2023-04-24T03:17:43.935Z,53.51
2023-04-24T03:20:29.446Z,53.35
2023-04-24T03:23:16.495Z,52.87
2023-04-24T03:26:01.797Z,53.61
2023-04-24T03:28:47.463Z,53.74
2023-04-24T03:31:32.916Z,53.60
2023-04-24T03:34:18.492Z,53.64
2023-04-24T03:37:03.771Z,53.68
2023-04-24T03:39:50.328Z,53.50
2023-04-24T03:42:39.489Z,53.46
2023-04-24T03:45:25.457Z,53.50
2023-04-24T03:48:10.919Z,53.52
2023-04-24T03:50:56.670Z,53.40
2023-04-24T03:53:41.941Z,52.94
2023-04-24T03:56:28.777Z,53.02
2023-04-24T03:59:14.474Z,53.10
2023-04-24T04:02:03.004Z,52.71
2023-04-24T04:04:48.883Z,52.67
2023-04-24T04:07:35.032Z,52.80
2023-04-24T04:10:20.735Z,52.73
2023-04-24T04:13:07.259Z,53.03
2023-04-24T04:15:53.745Z,52.89
2023-04-24T04:18:39.957Z,52.98
2023-04-24T04:21:27.558Z,53.07
2023-04-24T04:24:25.278Z,52.88
2023-04-24T04:27:12.015Z,53.21
2023-04-24T04:30:09.550Z,53.02
2023-04-24T04:33:05.830Z,52.40
2023-04-24T04:35:54.987Z,52.69
2023-04-24T04:38:42.973Z,53.08
2023-04-24T04:41:49.915Z,52.96
2023-04-24T04:44:37.223Z,52.52
2023-04-24T04:47:24.882Z,52.52
2023-04-24T04:50:12.357Z,52.63
2023-04-24T04:53:01.065Z,52.48
2023-04-24T04:55:53.239Z,52.73
2023-04-24T04:58:41.277Z,52.75
2023-04-24T05:01:30.232Z,52.52
2023-04-24T05:04:16.144Z,52.58
2023-04-24T05:07:01.745Z,52.61
2023-04-24T05:09:50.308Z,52.53
2023-04-24T05:12:35.909Z,52.35
2023-04-24T05:15:22.624Z,52.60
2023-04-24T05:18:08.061Z,52.73
2023-04-24T05:20:53.265Z,52.75
2023-04-24T05:23:39.065Z,51.96
2023-04-24T05:26:25.272Z,52.01
2023-04-24T05:29:10.836Z,52.00
2023-04-24T05:31:56.416Z,51.89
2023-04-24T05:34:42.196Z,51.88
2023-04-24T05:37:28.636Z,52.00
2023-04-24T05:40:14.459Z,52.22
2023-04-24T05:42:59.730Z,51.95
2023-04-24T05:45:45.008Z,51.95
2023-04-24T05:48:31.112Z,52.26
2023-04-24T05:51:19.396Z,52.04
2023-04-24T05:54:04.820Z,52.15
2023-04-24T05:56:51.759Z,52.06
2023-04-24T05:59:46.960Z,52.17
2023-04-24T06:02:33.720Z,52.09
2023-04-24T06:05:19.202Z,52.28
2023-04-24T06:08:04.276Z,51.98
2023-04-24T06:10:54.594Z,52.13
2023-04-24T06:13:40.777Z,52.21
2023-04-24T06:17:04.593Z,52.18
2023-04-24T06:19:55.680Z,52.11
2023-04-24T06:22:44.243Z,51.96
2023-04-24T06:25:30.096Z,51.99
2023-04-24T06:28:15.181Z,52.14
2023-04-24T06:31:00.414Z,51.95
2023-04-24T06:33:45.626Z,52.02
2023-04-24T06:36:32.196Z,51.80
2023-04-24T06:39:17.993Z,52.09
2023-04-24T06:42:03.810Z,52.07
2023-04-24T06:44:51.571Z,51.97
2023-04-24T06:47:36.991Z,51.99
2023-04-24T06:50:22.492Z,51.99
2023-04-24T06:53:08.257Z,51.92
2023-04-24T06:55:58.362Z,52.09
2023-04-24T06:58:43.981Z,52.03
2023-04-24T07:01:29.557Z,51.92
2023-04-24T07:04:15.127Z,51.99
2023-04-24T07:07:00.712Z,52.09
2023-04-24T07:09:47.011Z,52.01
2023-04-24T07:12:33.218Z,52.08
2023-04-24T07:15:18.736Z,52.03
2023-04-24T07:18:05.757Z,51.97
2023-04-24T07:20:51.403Z,52.03
2023-04-24T07:23:36.720Z,52.03
2023-04-24T07:26:22.202Z,51.92
2023-04-24T07:29:08.555Z,51.80
2023-04-24T07:31:55.119Z,51.82
2023-04-24T07:34:40.324Z,51.80
2023-04-24T07:37:25.888Z,51.82
2023-04-24T07:40:11.899Z,51.78
2023-04-24T07:42:57.156Z,51.81
2023-04-24T07:45:42.719Z,51.79
2023-04-24T07:48:28.010Z,51.76
2023-04-24T07:51:14.405Z,51.88
2023-04-24T07:53:59.657Z,51.73
2023-04-24T07:56:45.351Z,51.79
2023-04-24T07:59:30.874Z,51.70
2023-04-24T08:02:15.990Z,51.81
2023-04-24T08:05:01.170Z,51.64
2023-04-24T08:07:49.585Z,51.69
2023-04-24T08:10:35.127Z,51.51
2023-04-24T08:13:20.792Z,51.52
2023-04-24T08:16:06.433Z,51.61
2023-04-24T08:18:52.104Z,51.30
2023-04-24T08:21:37.620Z,51.43
2023-04-24T08:24:23.685Z,51.00
2023-04-24T08:27:09.539Z,51.37
2023-04-24T08:29:55.656Z,51.37
2023-04-24T08:32:41.002Z,51.20
2023-04-24T08:35:26.402Z,51.34
2023-04-24T08:38:11.577Z,51.11
2023-04-24T08:40:59.381Z,51.31
2023-04-24T08:43:47.416Z,51.20
2023-04-24T08:46:33.800Z,51.14
2023-04-24T08:49:19.960Z,51.22
2023-04-24T08:52:09.465Z,51.19
2023-04-24T08:54:55.958Z,51.28
2023-04-24T08:57:41.661Z,51.33
2023-04-24T09:00:28.077Z,51.04
2023-04-24T09:03:18.088Z,51.11
2023-04-24T09:06:03.830Z,51.27
2023-04-24T09:08:52.162Z,51.22
2023-04-24T09:11:38.072Z,50.98
2023-04-24T09:14:24.739Z,51.05
2023-04-24T09:17:10.022Z,51.06
2023-04-24T09:19:56.205Z,51.15
2023-04-24T09:22:43.315Z,51.00
2023-04-24T09:25:39.065Z,51.04
2023-04-24T09:28:31.039Z,51.12
2023-04-24T09:31:20.427Z,51.14
2023-04-24T09:34:09.029Z,51.15
2023-04-24T09:36:55.976Z,51.19
2023-04-24T09:39:41.711Z,51.08
2023-04-24T09:42:30.114Z,51.00
2023-04-24T09:45:16.302Z,50.95
2023-04-24T09:48:01.959Z,50.98
2023-04-24T09:50:48.294Z,51.02
2023-04-24T09:53:34.246Z,50.99
2023-04-24T09:56:22.732Z,50.91
2023-04-24T09:59:08.441Z,50.73
2023-04-24T10:01:53.799Z,51.05
2023-04-24T10:04:39.425Z,50.96
2023-04-24T10:07:30.589Z,50.90
2023-04-24T10:10:16.376Z,50.71
2023-04-24T10:13:02.450Z,50.73
2023-04-24T10:15:49.129Z,50.75
2023-04-24T10:18:35.146Z,50.81
2023-04-24T10:21:21.070Z,50.82
2023-04-24T10:24:08.480Z,50.73
2023-04-24T10:26:54.316Z,50.57
2023-04-24T10:29:41.019Z,50.64
2023-04-24T10:32:27.452Z,50.75
2023-04-24T10:35:14.807Z,50.77
2023-04-24T10:38:25.849Z,50.37
2023-04-24T10:41:20.743Z,50.69
2023-04-24T10:44:10.896Z,50.69
2023-04-24T10:46:56.873Z,50.71
2023-04-24T10:49:43.542Z,50.65
2023-04-24T10:52:45.566Z,50.63
2023-04-24T10:55:52.343Z,50.80
2023-04-24T10:58:50.106Z,50.67
2023-04-24T11:01:39.574Z,50.75
2023-04-24T11:04:32.748Z,50.71
2023-04-24T11:07:17.988Z,50.66
2023-04-24T11:10:03.421Z,50.64
2023-04-24T11:12:48.746Z,50.66
2023-04-24T11:15:34.532Z,50.56
2023-04-24T11:18:20.707Z,50.82
2023-04-24T11:21:19.020Z,50.84
2023-04-24T11:24:42.827Z,50.79
2023-04-24T11:27:49.773Z,50.61
2023-04-24T11:30:36.327Z,50.70
2023-04-24T11:33:22.555Z,50.69
2023-04-24T11:36:08.223Z,50.63
2023-04-24T11:38:54.370Z,50.73
2023-04-24T11:41:39.717Z,50.78
2023-04-24T11:44:26.279Z,50.70
2023-04-24T11:47:12.194Z,50.71
2023-04-24T11:49:59.635Z,50.62
2023-04-24T11:52:47.916Z,50.54
2023-04-24T11:55:33.654Z,50.47
2023-04-24T11:58:27.910Z,50.37
2023-04-24T12:01:13.650Z,50.35
2023-04-24T12:04:01.952Z,50.52
2023-04-24T12:07:03.794Z,50.46
2023-04-24T12:09:57.043Z,50.44
2023-04-24T12:12:42.217Z,50.27
2023-04-24T12:15:28.110Z,50.24
2023-04-24T12:18:14.800Z,50.06
2023-04-24T12:21:22.552Z,50.32
2023-04-24T12:24:08.822Z,43.57
2023-04-24T12:26:54.693Z,47.13
2023-04-24T12:29:54.892Z,49.80
2023-04-24T12:32:45.917Z,50.67
2023-04-24T12:35:34.383Z,50.50
2023-04-24T12:38:24.583Z,50.21
2023-04-24T12:41:12.618Z,50.15
2023-04-24T12:43:58.494Z,50.09
2023-04-24T12:46:44.115Z,50.21
2023-04-24T12:49:31.887Z,50.28
2023-04-24T12:52:18.431Z,50.35
2023-04-24T12:55:06.099Z,50.17
2023-04-24T12:57:51.666Z,50.04
2023-04-24T13:00:37.983Z,49.99
2023-04-24T13:03:23.857Z,49.27
2023-04-24T13:06:09.612Z,49.61
2023-04-24T13:08:56.065Z,49.84
2023-04-24T13:11:41.423Z,49.86
2023-04-24T13:14:26.771Z,50.12
2023-04-24T13:17:12.933Z,50.05
2023-04-24T13:19:58.617Z,50.34
2023-04-24T13:22:43.971Z,50.61
2023-04-24T13:25:29.399Z,50.64
2023-04-24T13:28:15.330Z,50.67
2023-04-24T13:31:01.025Z,50.71
2023-04-24T13:33:46.294Z,50.61
2023-04-24T13:36:32.672Z,50.21
2023-04-24T13:39:18.434Z,49.98
2023-04-24T13:42:05.269Z,50.33
2023-04-24T13:44:52.165Z,50.32
2023-04-24T13:47:37.753Z,50.13
2023-04-24T13:50:23.110Z,50.29
2023-04-24T13:53:08.826Z,50.14
2023-04-24T13:55:54.167Z,49.80
2023-04-24T13:58:40.001Z,49.91
2023-04-24T14:01:25.974Z,50.04
2023-04-24T14:04:12.251Z,41.22
2023-04-24T14:06:57.814Z,40.88
2023-04-24T14:09:43.230Z,40.19
2023-04-24T14:12:29.505Z,38.88
2023-04-24T14:15:14.813Z,40.62
2023-04-24T14:18:00.164Z,43.81
2023-04-24T14:20:46.249Z,45.41
2023-04-24T14:23:33.058Z,46.14
2023-04-24T14:26:18.475Z,46.08
2023-04-24T14:29:13.939Z,46.31
2023-04-24T14:31:59.715Z,46.41
2023-04-24T14:34:45.500Z,46.25
2023-04-24T14:37:31.903Z,46.55
2023-04-24T14:40:39.721Z,43.00
2023-04-24T14:43:22.888Z,45.11
2023-04-24T14:46:08.131Z,45.35
2023-04-24T14:48:53.424Z,41.93
2023-04-24T14:51:38.636Z,44.70
2023-04-24T14:54:24.512Z,45.87
2023-04-24T14:57:10.825Z,45.41
2023-04-24T14:59:57.609Z,45.20
2023-04-24T15:02:45.876Z,45.51
2023-04-24T15:05:32.666Z,45.84
2023-04-24T15:08:19.074Z,45.70
2023-04-24T15:11:04.642Z,46.41
2023-04-24T15:13:50.989Z,46.82
2023-04-24T15:16:36.533Z,47.19
2023-04-24T15:19:22.109Z,46.35
2023-04-24T15:22:07.687Z,46.78
2023-04-24T15:24:53.206Z,46.58
2023-04-24T15:27:46.332Z,46.47
2023-04-24T15:30:32.142Z,44.12
2023-04-24T15:33:17.539Z,42.93
2023-04-24T15:36:03.259Z,44.88
2023-04-24T15:38:48.841Z,45.30
2023-04-24T15:41:34.088Z,45.41
2023-04-24T15:44:21.101Z,45.50
2023-04-24T15:47:06.675Z,45.45
2023-04-24T15:49:53.571Z,45.63
2023-04-24T15:52:39.257Z,45.44
2023-04-24T15:55:24.577Z,45.43
2023-04-24T15:58:09.864Z,45.72
2023-04-24T16:00:56.302Z,46.23
2023-04-24T16:03:42.066Z,46.09
2023-04-24T16:06:27.899Z,46.69
2023-04-24T16:09:13.518Z,47.00
2023-04-24T16:11:59.412Z,46.71
2023-04-24T16:14:45.097Z,41.09
2023-04-24T16:17:30.542Z,43.69
2023-04-24T16:20:16.204Z,45.05
2023-04-24T16:23:01.753Z,45.79
2023-04-24T16:25:47.182Z,45.53
2023-04-24T16:28:32.472Z,45.35
2023-04-24T16:31:17.938Z,44.98
2023-04-24T16:34:05.116Z,44.84
2023-04-24T16:36:50.578Z,46.15
2023-04-24T16:39:36.029Z,46.17
2023-04-24T16:42:21.425Z,45.97
2023-04-24T16:45:07.391Z,46.75
2023-04-24T16:47:52.704Z,46.59
2023-04-24T16:50:38.182Z,45.82
2023-04-24T16:53:24.094Z,47.04
2023-04-24T16:56:09.779Z,43.30
2023-04-24T16:58:55.343Z,42.59
2023-04-24T17:01:40.855Z,42.90
2023-04-24T17:04:26.135Z,43.51
2023-04-24T17:07:11.378Z,43.38
2023-04-24T17:09:56.517Z,43.87
2023-04-24T17:12:41.807Z,44.53
2023-04-24T17:15:27.155Z,45.31
2023-04-24T17:18:12.378Z,45.55
2023-04-24T17:20:57.675Z,44.54
2023-04-24T17:23:42.961Z,44.38
2023-04-24T17:26:28.674Z,43.88
2023-04-24T17:29:15.482Z,44.05
2023-04-24T17:32:01.244Z,43.77
2023-04-24T17:34:47.832Z,44.07
2023-04-24T17:37:33.725Z,44.69
2023-04-24T17:40:19.138Z,45.77
2023-04-24T17:43:04.483Z,44.99
2023-04-24T17:45:58.083Z,44.91
2023-04-24T17:48:43.702Z,45.30
2023-04-24T17:51:29.213Z,45.07
2023-04-24T17:54:18.295Z,44.45
2023-04-24T17:57:03.897Z,44.44
2023-04-24T17:59:49.369Z,45.15
2023-04-24T18:02:36.422Z,44.93
2023-04-24T18:05:21.993Z,44.95
2023-04-24T18:08:07.636Z,44.38
2023-04-24T18:10:52.827Z,44.24
2023-04-24T18:13:39.831Z,43.99
2023-04-24T18:16:26.021Z,43.51
2023-04-24T18:19:11.249Z,43.59
2023-04-24T18:21:56.449Z,43.32
2023-04-24T18:24:41.752Z,43.04
2023-04-24T18:27:30.880Z,42.55
2023-04-24T18:30:16.603Z,42.79
2023-04-24T18:33:02.180Z,42.52
2023-04-24T18:35:47.364Z,42.47
2023-04-24T18:38:32.824Z,42.29
2023-04-24T18:41:18.137Z,42.38
2023-04-24T18:44:03.460Z,42.08
2023-04-24T18:46:48.472Z,42.52
2023-04-24T18:49:33.930Z,42.18
2023-04-24T18:52:19.323Z,42.62
2023-04-24T18:55:04.806Z,42.70
2023-04-24T18:57:50.598Z,42.88
2023-04-24T19:00:35.965Z,43.21
2023-04-24T19:03:21.389Z,43.31
2023-04-24T19:06:07.036Z,43.76
2023-04-24T19:08:52.125Z,43.58
2023-04-24T19:11:37.788Z,43.81
2023-04-24T19:14:23.257Z,43.89
2023-04-24T19:17:10.100Z,43.93
2023-04-24T19:19:55.430Z,44.19
2023-04-24T19:22:41.216Z,44.19
2023-04-24T19:25:26.480Z,44.17
2023-04-24T19:28:12.606Z,44.35
2023-04-24T19:30:58.748Z,44.37
2023-04-24T19:33:48.391Z,44.43
2023-04-24T19:36:34.151Z,44.82
2023-04-24T19:39:19.414Z,44.68
2023-04-24T19:42:07.370Z,44.52
2023-04-24T19:44:53.075Z,44.78
2023-04-24T19:47:38.641Z,45.18
2023-04-24T19:50:24.103Z,45.44
2023-04-24T19:53:09.579Z,45.03
2023-04-24T19:55:54.877Z,45.36
2023-04-24T19:58:40.085Z,45.14
2023-04-24T20:01:25.885Z,45.34
2023-04-24T20:04:11.964Z,45.46
2023-04-24T20:06:57.474Z,45.50
2023-04-24T20:09:42.828Z,45.39
2023-04-24T20:12:28.080Z,45.26
2023-04-24T20:15:13.544Z,45.50
2023-04-24T20:17:59.520Z,45.66
2023-04-24T20:20:44.758Z,45.71
2023-04-24T20:23:30.155Z,45.73
2023-04-24T20:26:15.463Z,45.50
2023-04-24T20:29:00.772Z,45.92
2023-04-24T20:31:46.514Z,45.85
2023-04-24T20:34:31.739Z,45.89
2023-04-24T20:37:17.090Z,45.88
2023-04-24T20:40:05.399Z,45.79
2023-04-24T20:42:51.387Z,45.67
2023-04-24T20:45:36.689Z,45.78
2023-04-24T20:48:21.904Z,46.09
2023-04-24T20:51:08.084Z,46.05
2023-04-24T20:53:53.528Z,45.86
2023-04-24T20:56:38.952Z,46.04
2023-04-24T20:59:24.279Z,46.26
2023-04-24T21:02:09.438Z,46.25
2023-04-24T21:04:54.644Z,46.17
2023-04-24T21:07:40.001Z,46.36
2023-04-24T21:10:26.321Z,46.46
2023-04-24T21:13:11.754Z,46.38
2023-04-24T21:15:56.945Z,46.63
2023-04-24T21:18:42.323Z,46.57
2023-04-24T21:21:27.533Z,46.53
2023-04-24T21:24:12.853Z,46.68
2023-04-24T21:26:58.249Z,46.67
2023-04-24T21:29:43.630Z,46.75
2023-04-24T21:32:28.977Z,46.87
2023-04-24T21:35:14.425Z,47.00
2023-04-24T21:37:59.689Z,46.82
2023-04-24T21:40:44.917Z,46.96
2023-04-24T21:43:43.446Z,47.15
2023-04-24T21:46:29.971Z,47.15
2023-04-24T21:49:15.289Z,47.10
2023-04-24T21:52:00.542Z,47.18
2023-04-24T21:54:45.956Z,47.08
2023-04-24T21:57:31.891Z,47.28
2023-04-24T22:00:17.365Z,47.32
2023-04-24T22:03:04.372Z,47.18
2023-04-24T22:05:49.903Z,47.33
2023-04-24T22:08:35.051Z,47.36
2023-04-24T22:11:26.880Z,47.46
2023-04-24T22:14:12.800Z,47.29
2023-04-24T22:16:58.019Z,47.37
2023-04-24T22:19:43.829Z,47.56
2023-04-24T22:22:29.462Z,47.59
2023-04-24T22:25:15.064Z,47.51
2023-04-24T22:28:00.687Z,47.52
2023-04-24T22:30:45.992Z,47.67
2023-04-24T22:33:31.429Z,47.58
2023-04-24T22:36:17.172Z,47.66
2023-04-24T22:39:02.801Z,47.61
2023-04-24T22:41:48.361Z,47.69
2023-04-24T22:44:33.589Z,47.63
2023-04-24T22:47:19.995Z,47.77
2023-04-24T22:50:07.272Z,47.69
2023-04-24T22:52:55.516Z,47.76
2023-04-24T22:55:40.752Z,47.75
2023-04-24T22:58:26.818Z,47.92
2023-04-24T23:01:12.294Z,47.83
2023-04-24T23:03:57.717Z,47.82
2023-04-24T23:06:42.865Z,47.68
2023-04-24T23:09:28.194Z,47.83
2023-04-24T23:12:13.359Z,47.86
2023-04-24T23:14:59.492Z,47.98
2023-04-24T23:17:45.017Z,47.94
2023-04-24T23:20:31.263Z,48.00
2023-04-24T23:23:16.963Z,47.88
2023-04-24T23:26:02.321Z,47.88
2023-04-24T23:28:47.415Z,47.85
2023-04-24T23:31:32.826Z,47.88
2023-04-24T23:34:19.962Z,48.05
2023-04-24T23:37:06.286Z,47.94
2023-04-24T23:39:51.736Z,47.90
2023-04-24T23:42:36.971Z,48.04
2023-04-24T23:45:22.142Z,47.96
2023-04-24T23:48:07.835Z,47.90
2023-04-24T23:50:53.563Z,47.98
2023-04-24T23:53:39.007Z,48.10
2023-04-24T23:56:26.676Z,47.96
2023-04-24T23:59:12.174Z,47.95
